Terminal Aerodrome Forecast
Issued by NWS

Current Version | Previous Version | Text Only | Print | Product List | Glossary Off
Versions: 1 2 3 4 5 6 7 8 9 10 11 12 13 14 15

200
FTUS41 KILN 261129
TAFLCK
TAF
KLCK 261129Z 2612/2712 27005KT P6SM SCT080
     FM261400 27012G18KT P6SM BKN060
     FM270100 25005KT P6SM BKN060
     FM270600 27004KT P6SM FEW050 BKN100=

USA.gov is the U.S. government's official web portal to all federal, state and local government web resources and services.